Time;durP1;ratioP1;P1;durP2;ratioP2;P2;SDS_P1;SDS_P2;PMS_P1;PMS_P2;Temp;Humidity;BMP_temperature;BMP_pressure;BME280_temperature;BME280_humidity;BME280_pressure;Samples;Min_cycle;Max_cycle;Signal;HPM_P1;HPM_P2
2023/04/05 00:00:14;;;;;;;5.97;4.03;;;6.30;73.60;;;;;;5072440;28;20220;-78
2023/04/05 00:02:41;;;;;;;3.78;3.30;;;6.30;73.90;;;;;;5074423;28;20222;-78
2023/04/05 00:05:10;;;;;;;2.92;2.67;;;6.30;74.20;;;;;;5081614;28;20223;-75
2023/04/05 00:07:39;;;;;;;7.82;3.90;;;6.30;74.20;;;;;;5073078;28;20303;-76
2023/04/05 00:10:07;;;;;;;4.57;4.18;;;6.20;75.00;;;;;;5080790;28;20222;-76
2023/04/05 00:12:39;;;;;;;5.03;4.10;;;6.20;74.40;;;;;;5087564;28;20677;-78
2023/04/05 00:15:07;;;;;;;5.40;4.43;;;6.20;74.60;;;;;;5093516;28;20223;-77
2023/04/05 00:17:34;;;;;;;4.85;4.15;;;6.20;74.90;;;;;;5093457;28;20277;-77
2023/04/05 00:20:04;;;;;;;7.82;4.57;;;6.20;75.30;;;;;;5090656;28;20219;-77
2023/04/05 00:22:34;;;;;;;5.07;3.95;;;6.20;75.60;;;;;;5086007;28;20277;-75
2023/04/05 00:25:03;;;;;;;5.47;4.10;;;6.20;75.80;;;;;;5088645;28;20230;-76
2023/04/05 00:27:30;;;;;;;6.75;3.60;;;6.10;75.80;;;;;;5091349;28;20224;-77
2023/04/05 00:30:09;;;;;;;8.30;4.38;;;6.10;75.80;;;;;;5083005;28;20234;-77
2023/04/05 00:32:36;;;;;;;4.50;3.45;;;6.10;75.80;;;;;;5087780;28;20222;-77
2023/04/05 00:35:03;;;;;;;4.50;4.10;;;6.10;75.20;;;;;;5084146;28;20220;-76
2023/04/05 00:37:30;;;;;;;4.30;3.28;;;6.10;75.00;;;;;;5080777;28;20530;-75
2023/04/05 00:39:57;;;;;;;6.32;4.30;;;6.10;74.70;;;;;;5077183;28;20223;-77
2023/04/05 00:42:26;;;;;;;4.40;3.80;;;6.10;74.60;;;;;;5082028;28;20251;-77
2023/04/05 00:44:52;;;;;;;4.15;3.50;;;6.00;73.90;;;;;;5091847;28;20224;-75
2023/04/05 00:47:20;;;;;;;5.32;3.92;;;6.00;74.00;;;;;;5086397;28;20246;-75
2023/04/05 00:49:47;;;;;;;5.32;3.50;;;6.00;74.10;;;;;;5090027;28;20314;-76
2023/04/05 00:52:15;;;;;;;4.15;3.50;;;6.00;74.20;;;;;;5092500;28;20628;-77
2023/04/05 00:54:42;;;;;;;5.10;3.83;;;6.00;74.30;;;;;;5091782;28;20681;-77
2023/04/05 00:57:09;;;;;;;3.92;3.50;;;5.90;74.50;;;;;;5091225;28;20339;-76
2023/04/05 00:59:38;;;;;;;3.90;3.22;;;5.90;74.40;;;;;;5091289;28;20281;-76
2023/04/05 01:02:12;;;;;;;5.38;3.03;;;5.90;75.20;;;;;;5093901;28;20277;-76
2023/04/05 01:04:48;;;;;;;5.63;4.35;;;5.90;74.50;;;;;;5096632;28;20579;-76
2023/04/05 01:07:26;;;;;;;6.90;4.82;;;5.90;74.70;;;;;;5094718;28;20234;-78
2023/04/05 01:09:56;;;;;;;7.35;5.25;;;5.90;75.10;;;;;;5096071;28;20219;-77
2023/04/05 01:12:24;;;;;;;5.95;4.70;;;5.90;75.40;;;;;;5096138;28;20255;-77
2023/04/05 01:14:55;;;;;;;5.63;3.83;;;5.90;75.40;;;;;;5095820;28;20246;-78
2023/04/05 01:17:27;;;;;;;5.88;5.13;;;5.90;75.50;;;;;;5095884;28;20227;-78
2023/04/05 01:19:58;;;;;;;5.40;3.65;;;5.90;75.70;;;;;;5094963;28;20223;-77
2023/04/05 01:26:17;;;;;;;5.72;5.07;;;5.80;76.30;;;;;;5085170;28;20262;-77
2023/04/05 01:29:23;;;;;;;4.07;3.38;;;5.80;76.70;;;;;;5085897;28;20696;-77
2023/04/05 01:32:00;;;;;;;6.93;3.85;;;5.80;76.60;;;;;;5055942;28;20308;-76
2023/04/05 01:34:34;;;;;;;5.05;3.97;;;5.80;76.50;;;;;;5074106;28;20689;-77
2023/04/05 01:37:05;;;;;;;3.38;3.08;;;5.70;76.30;;;;;;5074170;28;20247;-77
2023/04/05 01:39:35;;;;;;;5.30;3.80;;;5.70;75.70;;;;;;5074269;28;20224;-77
2023/04/05 01:42:03;;;;;;;5.28;3.00;;;5.70;75.60;;;;;;5079654;28;20306;-76
2023/04/05 01:44:30;;;;;;;4.10;3.55;;;5.70;75.60;;;;;;5094127;28;20285;-76
2023/04/05 01:47:01;;;;;;;3.60;3.30;;;5.70;75.70;;;;;;5097953;28;20258;-77
2023/04/05 01:49:29;;;;;;;5.18;3.90;;;5.70;75.90;;;;;;5097116;28;20223;-77
2023/04/05 01:51:57;;;;;;;4.38;3.35;;;5.70;76.30;;;;;;5097483;28;20231;-78
2023/04/05 01:54:28;;;;;;;4.75;3.72;;;5.70;76.50;;;;;;5100476;28;20242;-75
2023/04/05 01:56:55;;;;;;;5.75;3.53;;;5.70;76.60;;;;;;5101668;28;20219;-75
2023/04/05 01:59:22;;;;;;;6.18;4.18;;;5.70;76.60;;;;;;5098229;28;20233;-77
2023/04/05 02:01:51;;;;;;;4.43;4.00;;;5.60;77.10;;;;;;5098687;28;20223;-76
2023/04/05 02:04:19;;;;;;;5.38;4.28;;;5.60;77.30;;;;;;5097937;28;20223;-75
2023/04/05 02:06:46;;;;;;;5.15;4.63;;;5.60;77.70;;;;;;5098270;28;20288;-75
2023/04/05 02:09:13;;;;;;;5.82;3.38;;;5.60;78.10;;;;;;5097704;28;20227;-76
2023/04/05 02:11:40;;;;;;;4.13;2.90;;;5.60;78.10;;;;;;5096813;28;20265;-78
2023/04/05 02:14:07;;;;;;;4.07;3.72;;;5.60;78.00;;;;;;5094792;28;20231;-77
2023/04/05 02:16:34;;;;;;;6.22;3.90;;;5.60;78.10;;;;;;5095603;28;20280;-77
2023/04/05 02:19:12;;;;;;;4.82;4.05;;;5.60;78.20;;;;;;5083847;28;20227;-77
2023/04/05 02:21:40;;;;;;;4.65;3.95;;;5.60;78.30;;;;;;5094904;28;20223;-76
2023/04/05 02:24:08;;;;;;;5.95;3.55;;;5.60;78.40;;;;;;5084493;28;20223;-76
2023/04/05 02:26:35;;;;;;;3.75;3.10;;;5.60;78.80;;;;;;5095695;28;20276;-78
2023/04/05 02:29:02;;;;;;;3.55;3.15;;;5.70;79.10;;;;;;5093155;28;20223;-76
2023/04/05 02:31:29;;;;;;;4.00;3.60;;;5.70;79.00;;;;;;5095819;28;20649;-78
2023/04/05 02:33:59;;;;;;;5.68;3.47;;;5.70;79.20;;;;;;5094541;28;20293;-78
2023/04/05 02:36:28;;;;;;;4.15;3.55;;;5.70;78.90;;;;;;5095197;28;20314;-76
2023/04/05 02:38:57;;;;;;;6.05;3.53;;;5.70;78.80;;;;;;5084739;28;20219;-78
2023/04/05 02:41:24;;;;;;;6.70;4.03;;;5.70;78.90;;;;;;5094909;28;20278;-77
2023/04/05 02:43:51;;;;;;;6.05;4.03;;;5.70;79.10;;;;;;5096268;28;20223;-78
2023/04/05 02:46:18;;;;;;;5.20;4.25;;;5.70;79.20;;;;;;5097451;28;20223;-78
2023/04/05 02:48:46;;;;;;;5.72;3.55;;;5.70;79.60;;;;;;5099016;28;20533;-79
2023/04/05 02:51:13;;;;;;;5.85;3.95;;;5.70;79.90;;;;;;5097202;28;20689;-76
2023/04/05 02:53:40;;;;;;;4.32;3.92;;;5.70;80.40;;;;;;5096282;28;20518;-76
2023/04/05 02:56:08;;;;;;;7.03;4.03;;;5.70;80.80;;;;;;5095570;28;20273;-76
2023/04/05 02:58:35;;;;;;;4.40;4.00;;;5.70;81.40;;;;;;5095566;28;20247;-76
2023/04/05 03:01:06;;;;;;;9.75;5.30;;;5.70;81.80;;;;;;5096983;28;20668;-76
2023/04/05 03:03:36;;;;;;;7.57;5.18;;;5.70;82.10;;;;;;5099657;28;20227;-76
2023/04/05 03:06:08;;;;;;;6.07;4.80;;;5.70;82.30;;;;;;5100348;28;20223;-77
2023/04/05 03:08:37;;;;;;;6.00;4.40;;;5.70;82.60;;;;;;5105336;28;20260;-77
2023/04/05 03:11:05;;;;;;;6.22;4.60;;;5.80;83.00;;;;;;5107196;28;20215;-76
2023/04/05 03:13:40;;;;;;;6.05;4.65;;;5.80;83.30;;;;;;5104208;28;20219;-77
2023/04/05 03:16:07;;;;;;;6.60;4.55;;;5.80;83.40;;;;;;5106175;28;20237;-77
2023/04/05 03:18:35;;;;;;;4.25;3.85;;;5.80;83.40;;;;;;5102208;28;20219;-78
2023/04/05 03:21:03;;;;;;;6.35;4.30;;;5.80;83.60;;;;;;5102124;28;20234;-77
2023/04/05 03:23:33;;;;;;;5.10;3.78;;;5.80;83.60;;;;;;5098815;28;20215;-78
2023/04/05 03:26:02;;;;;;;4.22;3.92;;;5.80;83.40;;;;;;5096927;28;20253;-77
2023/04/05 03:28:31;;;;;;;5.28;4.35;;;5.80;83.20;;;;;;5096979;28;20306;-77
2023/04/05 03:30:59;;;;;;;3.78;3.47;;;5.80;83.50;;;;;;5088579;28;20319;-77
2023/04/05 03:33:27;;;;;;;3.42;3.13;;;5.80;83.60;;;;;;5097485;28;20985;-78
2023/04/05 03:35:54;;;;;;;6.40;4.25;;;5.80;84.40;;;;;;5098500;28;20223;-76
2023/04/05 03:38:21;;;;;;;4.78;3.75;;;5.80;83.60;;;;;;5098567;28;20231;-76
2023/04/05 03:40:48;;;;;;;4.25;3.85;;;5.80;83.90;;;;;;5095228;28;20227;-76
2023/04/05 03:43:15;;;;;;;7.00;3.90;;;5.70;83.90;;;;;;5093404;28;20268;-76
2023/04/05 03:45:43;;;;;;;6.25;4.20;;;5.70;84.10;;;;;;5094679;28;20219;-75
2023/04/05 03:51:41;;;;;;;5.00;4.22;;;5.80;84.00;;;;;;4999127;28;20321;-77
2023/04/05 03:54:17;;;;;;;7.28;4.95;;;5.80;84.20;;;;;;5075364;28;20250;-76
2023/04/05 03:57:23;;;;;;;6.72;4.32;;;5.80;84.30;;;;;;5087840;28;20691;-77
2023/04/05 03:59:51;;;;;;;7.35;4.60;;;5.80;84.50;;;;;;5078012;28;20220;-75
2023/04/05 04:02:29;;;;;;;7.78;4.93;;;5.70;84.70;;;;;;5075403;28;20226;-76
2023/04/05 04:08:06;;;;;;;5.38;4.55;;;5.70;85.10;;;;;;5020252;28;20300;-76
2023/04/05 04:10:47;;;;;;;12.85;4.80;;;5.80;85.00;;;;;;5014424;28;20266;-78
2023/04/05 04:13:30;;;;;;;6.55;3.80;;;5.80;85.30;;;;;;5069598;28;20309;-79
2023/04/05 04:16:02;;;;;;;6.22;4.00;;;5.80;85.50;;;;;;5095717;28;20676;-76
2023/04/05 04:18:29;;;;;;;10.55;3.47;;;5.80;85.60;;;;;;5091558;28;20584;-78
2023/04/05 04:20:57;;;;;;;5.10;4.07;;;5.80;85.70;;;;;;5092816;28;20260;-77
2023/04/05 04:23:26;;;;;;;4.15;3.58;;;5.80;85.60;;;;;;5092349;28;20223;-77
2023/04/05 04:25:53;;;;;;;4.35;3.60;;;5.80;86.00;;;;;;5092838;28;20536;-77
2023/04/05 04:28:23;;;;;;;7.82;3.72;;;5.90;86.10;;;;;;5081403;28;20232;-78
2023/04/05 04:30:51;;;;;;;5.15;3.70;;;5.90;86.30;;;;;;5091340;28;20608;-78
2023/04/05 04:33:18;;;;;;;5.15;3.67;;;5.90;86.30;;;;;;5092263;28;20231;-78
2023/04/05 04:35:46;;;;;;;4.25;3.38;;;5.90;86.50;;;;;;5094067;28;20227;-78
2023/04/05 04:38:17;;;;;;;6.05;2.83;;;5.90;86.60;;;;;;5096186;28;20239;-78
2023/04/05 04:40:49;;;;;;;8.57;3.60;;;5.90;86.70;;;;;;5096597;28;20219;-77
2023/04/05 04:43:17;;;;;;;5.75;3.03;;;5.90;86.90;;;;;;5096171;28;20227;-78
2023/04/05 04:45:45;;;;;;;4.80;3.50;;;5.90;87.10;;;;;;5096313;28;20225;-78
2023/04/05 04:48:15;;;;;;;3.72;2.95;;;5.90;87.30;;;;;;5095198;28;20234;-77
2023/04/05 04:50:42;;;;;;;4.20;3.63;;;5.90;87.60;;;;;;5096830;28;20215;-78
2023/04/05 04:53:16;;;;;;;4.47;3.38;;;6.00;87.60;;;;;;5096391;28;20306;-78
2023/04/05 04:55:43;;;;;;;5.90;4.40;;;6.00;87.70;;;;;;5096138;28;20667;-78
2023/04/05 05:00:57;;;;;;;4.65;3.50;;;6.00;87.70;;;;;;5096833;28;20272;-77
2023/04/05 05:03:24;;;;;;;5.45;3.40;;;6.00;87.90;;;;;;5095807;28;20233;-77
2023/04/05 05:05:52;;;;;;;3.33;3.00;;;6.00;87.60;;;;;;5085489;28;20219;-77
2023/04/05 05:08:19;;;;;;;5.15;4.00;;;6.10;87.80;;;;;;5095877;28;20754;-77
2023/04/05 05:10:50;;;;;;;4.57;4.03;;;6.10;87.90;;;;;;5098112;28;20231;-77
2023/04/05 05:13:18;;;;;;;7.60;4.90;;;6.10;87.80;;;;;;5097804;28;20242;-77
2023/04/05 05:15:47;;;;;;;6.15;4.20;;;6.10;87.80;;;;;;5098181;28;20258;-77
2023/04/05 05:18:14;;;;;;;7.05;4.07;;;6.10;87.60;;;;;;5103507;28;20227;-77
2023/04/05 05:20:42;;;;;;;9.02;4.82;;;6.10;87.80;;;;;;5102032;28;20234;-78
2023/04/05 05:23:09;;;;;;;5.50;3.83;;;6.20;87.50;;;;;;5104746;28;20257;-78
2023/04/05 05:25:36;;;;;;;7.68;4.60;;;6.20;87.40;;;;;;5105840;28;20216;-78
2023/04/05 05:28:03;;;;;;;6.45;4.43;;;6.20;87.30;;;;;;5114528;28;20227;-78
2023/04/05 05:30:32;;;;;;;8.57;4.95;;;6.20;87.20;;;;;;5115820;28;20217;-78
2023/04/05 05:33:04;;;;;;;7.65;4.90;;;6.20;87.10;;;;;;5115421;28;20211;-78
2023/04/05 05:35:31;;;;;;;10.52;5.93;;;6.20;86.80;;;;;;5097380;28;20577;-78
2023/04/05 05:37:58;;;;;;;8.32;5.10;;;6.30;86.80;;;;;;5097367;28;20219;-78
2023/04/05 05:40:26;;;;;;;5.45;4.38;;;6.30;86.70;;;;;;5095902;28;20224;-78
2023/04/05 05:42:53;;;;;;;9.27;5.15;;;6.30;86.60;;;;;;5097732;28;20252;-77
2023/04/05 05:45:20;;;;;;;6.70;4.53;;;6.30;86.50;;;;;;5095365;28;20227;-77
2023/04/05 05:47:48;;;;;;;6.25;4.20;;;6.40;86.50;;;;;;5095766;28;20295;-77
2023/04/05 05:50:16;;;;;;;6.35;4.25;;;6.40;86.40;;;;;;5094447;28;20251;-77
2023/04/05 05:55:27;;;;;;;4.50;3.60;;;6.40;86.00;;;;;;5095047;28;20238;-76
2023/04/05 05:57:54;;;;;;;6.53;4.38;;;6.40;85.90;;;;;;5094990;28;20295;-76
2023/04/05 06:00:21;;;;;;;7.45;4.18;;;6.40;85.90;;;;;;5094419;28;20238;-77
2023/04/05 06:02:51;;;;;;;6.30;4.15;;;6.50;86.10;;;;;;5094974;28;20219;-77
2023/04/05 06:05:18;;;;;;;4.68;4.25;;;6.50;86.20;;;;;;5094432;28;20676;-77
2023/04/05 06:07:45;;;;;;;6.90;4.95;;;6.50;86.40;;;;;;5094745;28;20231;-77
2023/04/05 06:10:13;;;;;;;8.45;6.05;;;6.50;86.60;;;;;;5095159;28;20246;-76
2023/04/05 06:12:40;;;;;;;9.45;6.60;;;6.60;86.70;;;;;;5094379;28;20227;-76
2023/04/05 06:15:08;;;;;;;7.05;5.78;;;6.60;86.60;;;;;;5094999;28;20765;-76
2023/04/05 06:17:40;;;;;;;9.98;6.00;;;6.70;86.60;;;;;;5094138;28;20280;-76
2023/04/05 06:20:11;;;;;;;10.35;4.80;;;6.70;86.50;;;;;;5094919;28;20230;-76
2023/04/05 06:22:39;;;;;;;6.78;4.40;;;6.70;86.50;;;;;;5094385;28;20223;-75
2023/04/05 06:25:07;;;;;;;3.65;3.35;;;6.70;86.60;;;;;;5094659;28;20345;-75
2023/04/05 06:27:34;;;;;;;4.47;3.90;;;6.80;86.60;;;;;;5093919;28;20685;-76
2023/04/05 06:30:01;;;;;;;7.50;4.10;;;6.80;85.70;;;;;;5094937;28;20216;-75
2023/04/05 06:32:28;;;;;;;6.10;4.03;;;6.90;85.90;;;;;;5094465;28;20311;-76
2023/04/05 06:34:55;;;;;;;4.47;3.63;;;6.90;86.00;;;;;;5094779;28;20681;-76
2023/04/05 06:37:29;;;;;;;4.00;3.20;;;6.90;85.70;;;;;;5082952;28;20224;-77
2023/04/05 06:39:56;;;;;;;6.03;4.70;;;6.90;86.10;;;;;;5091682;28;20253;-76
2023/04/05 06:42:23;;;;;;;5.63;4.05;;;7.00;85.80;;;;;;5091324;28;20715;-76
2023/04/05 06:44:50;;;;;;;7.35;4.85;;;7.00;85.60;;;;;;5094392;28;20223;-77
2023/04/05 06:50:02;;;;;;;7.10;3.60;;;7.10;85.30;;;;;;5099772;28;20211;-78
2023/04/05 06:52:30;;;;;;;6.03;4.13;;;7.20;85.10;;;;;;5082406;28;20290;-76
2023/04/05 06:54:58;;;;;;;6.72;4.97;;;7.20;84.80;;;;;;5074966;28;20276;-76
2023/04/05 06:57:25;;;;;;;9.05;4.43;;;7.20;84.70;;;;;;5081443;28;20246;-77
2023/04/05 06:59:54;;;;;;;8.60;4.95;;;7.20;84.70;;;;;;5093736;28;20219;-77
2023/04/05 07:02:21;;;;;;;8.32;4.72;;;7.30;84.90;;;;;;5093409;28;20309;-77
2023/04/05 07:04:48;;;;;;;8.95;4.47;;;7.30;84.50;;;;;;5073713;28;20219;-77
2023/04/05 07:07:16;;;;;;;8.95;5.20;;;7.30;84.10;;;;;;5083637;28;20658;-76
2023/04/05 07:09:44;;;;;;;6.93;4.20;;;7.40;84.60;;;;;;5072753;28;20224;-76
2023/04/05 07:12:11;;;;;;;9.68;5.05;;;7.40;85.10;;;;;;5082479;28;20224;-76
2023/04/05 07:14:39;;;;;;;9.70;6.68;;;7.40;84.90;;;;;;5092815;28;20666;-76
2023/04/05 07:17:07;;;;;;;5.80;4.45;;;7.40;85.20;;;;;;5093604;28;20533;-76
2023/04/05 07:19:34;;;;;;;8.52;5.45;;;7.50;85.30;;;;;;5092741;28;20227;-78
2023/04/05 07:22:01;;;;;;;9.68;5.68;;;7.50;85.50;;;;;;5093297;28;20587;-78
2023/04/05 07:24:28;;;;;;;8.65;5.65;;;7.60;85.70;;;;;;5092992;28;20815;-78
2023/04/05 07:26:57;;;;;;;8.82;5.40;;;7.60;85.40;;;;;;5093428;28;20551;-76
2023/04/05 07:29:25;;;;;;;8.35;5.53;;;7.70;85.40;;;;;;5092370;28;20758;-78
2023/04/05 07:31:52;;;;;;;10.88;5.22;;;7.70;85.60;;;;;;5092565;28;20211;-76
2023/04/05 07:34:19;;;;;;;8.30;5.13;;;7.80;85.70;;;;;;5091198;28;20216;-76
2023/04/05 07:36:46;;;;;;;7.57;5.15;;;7.80;85.90;;;;;;5075978;28;20232;-77
2023/04/05 07:41:59;;;;;;;10.63;5.68;;;7.80;86.10;;;;;;5072942;28;20227;-77
2023/04/05 07:44:29;;;;;;;5.72;5.03;;;7.80;86.10;;;;;;5062913;28;20669;-77
2023/04/05 07:46:56;;;;;;;5.28;4.18;;;7.90;86.10;;;;;;5072768;28;20223;-77
2023/04/05 07:49:26;;;;;;;10.00;5.07;;;7.80;86.40;;;;;;5072240;28;20294;-76
2023/04/05 07:51:55;;;;;;;6.85;4.75;;;7.80;86.50;;;;;;5072713;28;20224;-76
2023/04/05 07:54:23;;;;;;;5.13;4.22;;;7.80;86.50;;;;;;5072234;28;20331;-76
2023/04/05 07:56:50;;;;;;;9.35;5.35;;;7.80;86.80;;;;;;5071352;28;20224;-77
2023/04/05 07:59:19;;;;;;;5.28;4.43;;;7.90;87.10;;;;;;5071259;28;20232;-78
2023/04/05 08:01:46;;;;;;;6.43;5.07;;;7.90;87.10;;;;;;5072692;28;20243;-77
2023/04/05 08:04:12;;;;;;;5.65;4.25;;;7.90;87.30;;;;;;5072562;28;20289;-77
2023/04/05 08:06:39;;;;;;;5.65;4.85;;;8.00;87.40;;;;;;5072488;28;20220;-76
2023/04/05 08:09:07;;;;;;;4.55;3.60;;;8.00;87.60;;;;;;5072351;28;20228;-76
2023/04/05 08:11:36;;;;;;;6.45;4.40;;;8.00;86.80;;;;;;5071218;28;20295;-77
2023/04/05 08:14:03;;;;;;;6.78;4.57;;;8.00;87.00;;;;;;5072472;28;20318;-77
2023/04/05 08:16:32;;;;;;;4.78;3.50;;;8.00;86.90;;;;;;5071764;28;20246;-76
2023/04/05 08:19:02;;;;;;;6.10;3.60;;;8.10;87.00;;;;;;5071903;28;20373;-77
2023/04/05 08:21:29;;;;;;;5.45;4.35;;;8.10;86.70;;;;;;5081054;28;20219;-77
2023/04/05 08:23:57;;;;;;;9.13;4.90;;;8.20;86.90;;;;;;5091103;28;20696;-77
2023/04/05 08:26:24;;;;;;;4.95;4.40;;;8.20;86.90;;;;;;5091729;28;20246;-77
2023/04/05 08:28:51;;;;;;;5.63;4.97;;;8.30;87.10;;;;;;5092598;28;20314;-77
2023/04/05 08:31:19;;;;;;;6.82;5.13;;;8.30;86.90;;;;;;5091911;28;20227;-76
2023/04/05 08:33:47;;;;;;;4.65;4.10;;;8.40;87.10;;;;;;5092240;28;20230;-76
2023/04/05 08:38:58;;;;;;;8.13;4.30;;;8.40;85.20;;;;;;5092278;28;20546;-76
2023/04/05 08:41:30;;;;;;;7.88;3.83;;;8.50;85.30;;;;;;5092339;28;20237;-76
2023/04/05 08:44:01;;;;;;;5.05;4.32;;;8.50;84.70;;;;;;5091869;28;20288;-76
2023/04/05 08:46:31;;;;;;;4.70;4.30;;;8.60;83.60;;;;;;5091949;28;20223;-76
2023/04/05 08:49:00;;;;;;;4.13;3.70;;;8.70;83.70;;;;;;5091979;28;20227;-76
2023/04/05 08:51:28;;;;;;;5.70;4.13;;;8.80;83.90;;;;;;5092421;28;20584;-76
2023/04/05 08:53:55;;;;;;;5.45;3.50;;;8.80;83.70;;;;;;5092394;28;20242;-76
2023/04/05 08:56:26;;;;;;;4.15;3.75;;;8.90;83.40;;;;;;5091304;28;20635;-76
2023/04/05 08:59:01;;;;;;;4.95;3.30;;;8.90;83.60;;;;;;5091283;28;20235;-76
2023/04/05 09:01:30;;;;;;;5.78;4.28;;;9.00;83.60;;;;;;5091651;28;20211;-77
2023/04/05 09:04:00;;;;;;;6.13;4.25;;;9.10;83.40;;;;;;5092460;28;20234;-76
2023/04/05 09:06:27;;;;;;;4.47;3.63;;;9.10;82.60;;;;;;5091699;28;20235;-76
2023/04/05 09:08:56;;;;;;;5.82;3.90;;;9.20;82.70;;;;;;5091921;28;20546;-77
2023/04/05 09:11:24;;;;;;;8.18;4.07;;;9.20;83.00;;;;;;5090853;28;20234;-76
2023/04/05 09:13:51;;;;;;;5.63;3.22;;;9.30;82.30;;;;;;5092031;28;20226;-76
2023/04/05 09:16:20;;;;;;;7.60;4.05;;;9.30;82.20;;;;;;5091528;28;20603;-76
2023/04/05 09:18:48;;;;;;;5.95;3.50;;;9.40;82.10;;;;;;5091780;28;20287;-76
2023/04/05 09:21:16;;;;;;;5.07;3.53;;;9.50;81.90;;;;;;5091941;28;20247;-77
2023/04/05 09:23:52;;;;;;;6.15;4.90;;;9.60;81.40;;;;;;5095994;28;20277;-77
2023/04/05 09:26:20;;;;;;;5.35;4.32;;;9.60;81.40;;;;;;5096199;28;20237;-77
2023/04/05 09:28:52;;;;;;;9.73;5.07;;;9.60;81.60;;;;;;5095843;28;20227;-76
2023/04/05 09:31:33;;;;;;;6.75;4.30;;;9.70;81.40;;;;;;5097232;28;20223;-77
2023/04/05 09:34:03;;;;;;;8.15;4.22;;;9.80;81.50;;;;;;5104162;28;20226;-77
2023/04/05 09:36:34;;;;;;;5.20;4.07;;;9.90;81.10;;;;;;5105261;28;20257;-77
2023/04/05 09:39:08;;;;;;;5.10;4.18;;;9.90;80.90;;;;;;5100781;28;20676;-76
2023/04/05 09:41:38;;;;;;;5.07;4.15;;;10.00;78.60;;;;;;5097603;28;20222;-75
2023/04/05 09:44:05;;;;;;;4.55;4.15;;;10.00;78.60;;;;;;5096152;28;20329;-75
2023/04/05 09:46:35;;;;;;;6.35;3.80;;;10.00;78.40;;;;;;5094210;28;20233;-75
2023/04/05 09:49:05;;;;;;;19.95;4.68;;;10.10;78.40;;;;;;5095549;28;20223;-77
2023/04/05 09:51:36;;;;;;;4.88;4.47;;;10.10;78.30;;;;;;5094060;28;20234;-77
2023/04/05 09:54:06;;;;;;;8.88;3.95;;;10.10;77.70;;;;;;5095823;28;20288;-77
2023/04/05 09:56:42;;;;;;;5.70;4.10;;;10.10;78.00;;;;;;5094813;28;20231;-78
2023/04/05 09:59:10;;;;;;;6.25;4.05;;;10.20;78.00;;;;;;5095237;28;20227;-77
2023/04/05 10:01:39;;;;;;;3.97;3.58;;;10.10;77.50;;;;;;5093386;28;20269;-76
2023/04/05 10:04:05;;;;;;;6.32;4.47;;;10.20;77.80;;;;;;5095114;28;20211;-77
2023/04/05 10:06:38;;;;;;;5.80;3.60;;;10.30;77.70;;;;;;5085690;28;20611;-77
2023/04/05 10:09:06;;;;;;;5.80;3.63;;;10.30;77.50;;;;;;5094865;28;20224;-76
2023/04/05 10:11:34;;;;;;;5.93;3.75;;;10.40;77.20;;;;;;5093487;28;20679;-76
2023/04/05 10:14:03;;;;;;;3.15;2.95;;;10.40;77.30;;;;;;5095017;28;20227;-76
2023/04/05 10:16:34;;;;;;;5.07;4.55;;;10.50;77.00;;;;;;5094348;28;20233;-76
2023/04/05 10:19:04;;;;;;;3.75;3.33;;;10.50;76.00;;;;;;5094696;28;20229;-78
2023/04/05 10:21:35;;;;;;;5.30;3.70;;;10.50;76.00;;;;;;5094018;28;20234;-76
2023/04/05 10:24:11;;;;;;;8.38;4.03;;;10.50;74.60;;;;;;5094743;28;20284;-75
2023/04/05 10:26:46;;;;;;;5.97;4.22;;;10.50;75.30;;;;;;5093377;28;20624;-77
2023/04/05 10:29:20;;;;;;;4.80;4.35;;;10.50;75.50;;;;;;5094403;28;20304;-77
2023/04/05 10:32:03;;;;;;;5.07;3.90;;;10.50;74.90;;;;;;5094259;28;20603;-77
2023/04/05 10:34:39;;;;;;;5.88;4.70;;;10.50;74.80;;;;;;5093440;28;20623;-77
2023/04/05 10:37:07;;;;;;;4.60;3.78;;;10.40;74.80;;;;;;5093950;28;20631;-78
2023/04/05 10:39:41;;;;;;;5.00;3.70;;;10.40;73.90;;;;;;5094005;28;20288;-78
2023/04/05 10:42:20;;;;;;;4.20;3.70;;;10.30;74.30;;;;;;5094498;28;20231;-78
2023/04/05 10:44:54;;;;;;;3.90;3.42;;;10.30;74.50;;;;;;5094117;28;20672;-77
2023/04/05 10:47:26;;;;;;;6.32;4.22;;;10.30;74.60;;;;;;5094105;28;20691;-77
2023/04/05 10:49:56;;;;;;;6.40;3.55;;;10.30;74.70;;;;;;5094473;28;20269;-78
2023/04/05 10:52:24;;;;;;;5.28;3.40;;;10.30;74.40;;;;;;5094543;28;20227;-78
2023/04/05 10:54:53;;;;;;;4.22;3.63;;;10.30;74.30;;;;;;5094479;28;20227;-78
2023/04/05 10:57:21;;;;;;;4.10;3.75;;;10.30;74.30;;;;;;5094475;28;20228;-78
2023/04/05 10:59:50;;;;;;;6.35;3.80;;;10.30;74.50;;;;;;5093599;28;20239;-78
2023/04/05 11:02:18;;;;;;;5.03;3.30;;;10.30;74.30;;;;;;5094621;28;20761;-78
2023/04/05 11:04:44;;;;;;;3.05;2.80;;;10.30;74.50;;;;;;5094520;28;20219;-77
2023/04/05 11:07:13;;;;;;;4.03;3.63;;;10.40;74.50;;;;;;5083551;28;20250;-77
2023/04/05 11:09:54;;;;;;;5.32;3.65;;;10.40;74.40;;;;;;5093557;28;20730;-76
2023/04/05 11:12:42;;;;;;;4.75;3.80;;;10.40;74.40;;;;;;5093948;28;20288;-76
2023/04/05 11:15:31;;;;;;;3.67;3.25;;;10.40;74.50;;;;;;5094457;28;20302;-76
2023/04/05 11:18:07;;;;;;;4.53;3.78;;;10.40;74.80;;;;;;5092836;28;20249;-76
2023/04/05 11:23:29;;;;;;;5.00;3.50;;;10.40;74.30;;;;;;5094067;28;20223;-76
2023/04/05 11:26:04;;;;;;;4.63;3.47;;;10.40;74.30;;;;;;5094497;28;20698;-76
2023/04/05 11:28:38;;;;;;;3.80;3.45;;;10.50;74.70;;;;;;5101273;28;20219;-77
2023/04/05 11:31:14;;;;;;;4.72;3.60;;;10.50;74.70;;;;;;5099989;28;20230;-76
2023/04/05 11:34:09;;;;;;;6.05;3.65;;;10.50;74.80;;;;;;5095243;28;20637;-76
2023/04/05 11:36:44;;;;;;;6.70;3.75;;;10.50;75.20;;;;;;5092264;28;20257;-76
2023/04/05 11:39:25;;;;;;;4.50;3.60;;;10.40;74.90;;;;;;5094248;28;20242;-78
2023/04/05 11:42:02;;;;;;;3.20;2.95;;;10.40;75.40;;;;;;5094932;28;20237;-78
2023/04/05 11:44:33;;;;;;;3.35;3.05;;;10.50;75.20;;;;;;5095074;28;20210;-78
2023/04/05 11:47:00;;;;;;;4.70;3.55;;;10.40;75.10;;;;;;5098021;28;20245;-77
2023/04/05 11:49:28;;;;;;;5.78;4.00;;;10.50;75.60;;;;;;5094121;28;20227;-78
2023/04/05 11:51:55;;;;;;;5.93;3.78;;;10.50;75.90;;;;;;5085996;28;20593;-77
2023/04/05 11:54:32;;;;;;;3.50;3.20;;;10.40;76.20;;;;;;5094059;28;20318;-78
2023/04/05 11:57:02;;;;;;;4.35;2.92;;;10.40;76.00;;;;;;5095478;28;20223;-77
2023/04/05 11:59:33;;;;;;;5.90;3.50;;;10.50;75.70;;;;;;5093939;28;20219;-77
2023/04/05 12:02:02;;;;;;;5.18;3.08;;;10.50;75.20;;;;;;5097565;28;20222;-77
2023/04/05 12:04:31;;;;;;;4.63;3.08;;;10.50;75.60;;;;;;5092948;28;20520;-78
2023/04/05 12:07:11;;;;;;;3.92;2.65;;;10.50;76.00;;;;;;5093622;28;20603;-78
2023/04/05 12:09:57;;;;;;;7.13;2.90;;;10.50;76.00;;;;;;5094024;28;20284;-77
2023/04/05 12:12:25;;;;;;;3.30;3.00;;;10.40;76.60;;;;;;5094329;28;20219;-77
2023/04/05 12:17:45;;;;;;;6.35;5.38;;;10.40;77.60;;;;;;5092338;28;20553;-75
2023/04/05 12:20:14;;;;;;;4.03;3.45;;;10.20;77.10;;;;;;5096875;28;20252;-76
2023/04/05 12:22:44;;;;;;;4.63;3.60;;;10.10;77.60;;;;;;5093850;28;20300;-75
2023/04/05 12:25:12;;;;;;;4.25;3.45;;;10.20;78.20;;;;;;5095844;28;20223;-75
2023/04/05 12:27:41;;;;;;;3.22;2.92;;;10.10;78.20;;;;;;5096684;28;20224;-76
2023/04/05 12:30:17;;;;;;;3.42;3.08;;;10.20;78.20;;;;;;5094216;28;20227;-76
2023/04/05 12:32:50;;;;;;;3.55;3.08;;;10.30;78.20;;;;;;5093165;28;20672;-76
2023/04/05 12:35:18;;;;;;;4.32;3.30;;;10.30;77.10;;;;;;5094059;28;20228;-76
2023/04/05 12:37:46;;;;;;;4.82;3.10;;;10.40;77.10;;;;;;5092281;28;20323;-76
2023/04/05 12:40:14;;;;;;;4.68;3.30;;;10.50;77.60;;;;;;5092853;28;20233;-77
2023/04/05 12:42:45;;;;;;;5.13;3.40;;;10.50;77.70;;;;;;5092009;28;20243;-77
2023/04/05 12:45:13;;;;;;;3.30;2.90;;;10.50;78.40;;;;;;5093125;28;20250;-77
2023/04/05 12:47:52;;;;;;;3.83;3.20;;;10.50;78.60;;;;;;5092512;28;20257;-78
2023/04/05 12:50:26;;;;;;;4.15;2.97;;;10.50;78.30;;;;;;5083264;28;20226;-77
2023/04/05 12:53:00;;;;;;;3.63;2.67;;;10.50;78.00;;;;;;5092885;28;20227;-77
2023/04/05 12:55:28;;;;;;;8.10;3.47;;;10.50;76.70;;;;;;5095693;28;20227;-77
2023/04/05 12:57:59;;;;;;;5.13;2.85;;;10.50;77.00;;;;;;5087370;28;20285;-77
2023/04/05 13:00:28;;;;;;;4.15;2.85;;;10.50;77.00;;;;;;5097892;28;20239;-77
2023/04/05 13:02:57;;;;;;;4.60;3.15;;;10.60;77.20;;;;;;5096747;28;20245;-77
2023/04/05 13:05:25;;;;;;;5.40;3.92;;;10.60;76.50;;;;;;5097096;28;20223;-76
2023/04/05 13:07:53;;;;;;;6.05;3.22;;;10.60;76.60;;;;;;5097218;28;20284;-76
2023/04/05 13:13:08;;;;;;;4.30;3.50;;;10.80;74.40;;;;;;5092831;28;20675;-77
2023/04/05 13:15:35;;;;;;;4.53;3.45;;;10.80;73.40;;;;;;5096394;28;20314;-77
2023/04/05 13:18:02;;;;;;;4.43;3.50;;;10.90;73.20;;;;;;5095924;28;20231;-77
2023/04/05 13:20:29;;;;;;;3.75;3.42;;;11.00;73.20;;;;;;5096439;28;20241;-78
2023/04/05 13:22:56;;;;;;;4.07;3.10;;;11.00;73.20;;;;;;5095462;28;20223;-77
2023/04/05 13:25:23;;;;;;;4.18;3.22;;;11.10;73.10;;;;;;5095855;28;20227;-78
2023/04/05 13:27:50;;;;;;;4.80;3.50;;;11.10;72.60;;;;;;5093348;28;20227;-78
2023/04/05 13:30:19;;;;;;;3.70;3.40;;;11.00;71.80;;;;;;5096401;28;20223;-78
2023/04/05 13:32:46;;;;;;;4.82;3.65;;;11.00;72.10;;;;;;5096301;28;20703;-77
2023/04/05 13:35:13;;;;;;;3.58;3.28;;;11.00;72.10;;;;;;5096577;28;20665;-78
2023/04/05 13:37:40;;;;;;;3.55;2.65;;;11.00;71.80;;;;;;5096233;28;20231;-77